Jackson Springs, North Carolina
Current Conditions -  °F | °C
As of 8:15 PM on Tuesday 21 Oct 2014 (Local Time) from KSOP Reporting Station
Broken Clouds Broken Clouds  
Wind Chill: 17°   Ceiling: 9000
Heat Index: 17°   Visibility: 10mi
Dew Point:   Wind: 3mph
Humidity: 59%   Direction: 330°NNW
Pressure: 29.9"   Gusts: NA
Location:  35.21°N, 79.63°W
Report Text: KSOP 220015Z AUTO 33003KT 10SM SCT085 BKN090 17/09 A2990 RMK AO1
Loading
Personal Weather Stations






























Interactive Weather Map
Tropical Storm Tracking
New forecast layout! Learn more

10-Day Weather Forecast

Advertisements
Track Severe Weather on mobile